sensor_id;sensor_type;location;lat;lon;timestamp;P1;durP1;ratioP1;P2;durP2;ratioP2
19798;SDS011;10059;59.850;10.454;2022-11-15T00:01:32;2.73;;;0.87;;
19798;SDS011;10059;59.850;10.454;2022-11-15T00:03:59;1.47;;;1.00;;
19798;SDS011;10059;59.850;10.454;2022-11-15T00:06:27;1.27;;;1.00;;
19798;SDS011;10059;59.850;10.454;2022-11-15T00:08:54;1.67;;;0.90;;
19798;SDS011;10059;59.850;10.454;2022-11-15T00:11:23;1.53;;;0.87;;
19798;SDS011;10059;59.850;10.454;2022-11-15T00:13:50;1.07;;;0.80;;
19798;SDS011;10059;59.850;10.454;2022-11-15T00:16:17;1.20;;;0.80;;
19798;SDS011;10059;59.850;10.454;2022-11-15T00:18:44;1.83;;;0.77;;
19798;SDS011;10059;59.850;10.454;2022-11-15T00:21:11;1.07;;;0.83;;
19798;SDS011;10059;59.850;10.454;2022-11-15T00:23:41;1.83;;;0.93;;
19798;SDS011;10059;59.850;10.454;2022-11-15T00:26:10;1.00;;;0.80;;
19798;SDS011;10059;59.850;10.454;2022-11-15T00:28:38;1.03;;;0.90;;
19798;SDS011;10059;59.850;10.454;2022-11-15T00:31:06;1.30;;;1.00;;
19798;SDS011;10059;59.850;10.454;2022-11-15T00:33:35;2.30;;;1.00;;
19798;SDS011;10059;59.850;10.454;2022-11-15T00:36:02;1.03;;;0.90;;
19798;SDS011;10059;59.850;10.454;2022-11-15T00:38:30;1.07;;;0.97;;
19798;SDS011;10059;59.850;10.454;2022-11-15T00:41:00;1.33;;;1.03;;
19798;SDS011;10059;59.850;10.454;2022-11-15T00:43:27;1.10;;;1.00;;
19798;SDS011;10059;59.850;10.454;2022-11-15T00:45:54;1.70;;;1.20;;
19798;SDS011;10059;59.850;10.454;2022-11-15T00:48:21;1.60;;;1.20;;
19798;SDS011;10059;59.850;10.454;2022-11-15T00:50:48;3.27;;;1.30;;
19798;SDS011;10059;59.850;10.454;2022-11-15T00:53:15;1.67;;;1.30;;
19798;SDS011;10059;59.850;10.454;2022-11-15T00:55:43;1.17;;;1.03;;
19798;SDS011;10059;59.850;10.454;2022-11-15T00:58:11;1.73;;;1.23;;
19798;SDS011;10059;59.850;10.454;2022-11-15T01:00:38;1.93;;;1.47;;
19798;SDS011;10059;59.850;10.454;2022-11-15T01:03:05;1.43;;;1.20;;
19798;SDS011;10059;59.850;10.454;2022-11-15T01:05:32;1.60;;;1.20;;
19798;SDS011;10059;59.850;10.454;2022-11-15T01:07:58;1.40;;;1.10;;
19798;SDS011;10059;59.850;10.454;2022-11-15T01:10:25;1.33;;;1.13;;
19798;SDS011;10059;59.850;10.454;2022-11-15T01:12:52;1.40;;;1.10;;
19798;SDS011;10059;59.850;10.454;2022-11-15T01:15:20;1.20;;;1.00;;
19798;SDS011;10059;59.850;10.454;2022-11-15T01:17:50;0.97;;;0.90;;
19798;SDS011;10059;59.850;10.454;2022-11-15T01:20:17;1.07;;;0.83;;
19798;SDS011;10059;59.850;10.454;2022-11-15T01:22:44;1.50;;;0.80;;
19798;SDS011;10059;59.850;10.454;2022-11-15T01:25:11;1.23;;;0.80;;
19798;SDS011;10059;59.850;10.454;2022-11-15T01:27:38;1.00;;;0.83;;
19798;SDS011;10059;59.850;10.454;2022-11-15T01:30:06;1.10;;;0.80;;
19798;SDS011;10059;59.850;10.454;2022-11-15T01:32:35;1.00;;;0.90;;
19798;SDS011;10059;59.850;10.454;2022-11-15T01:35:02;1.20;;;0.90;;
19798;SDS011;10059;59.850;10.454;2022-11-15T01:37:30;1.30;;;0.80;;
19798;SDS011;10059;59.850;10.454;2022-11-15T01:39:56;0.93;;;0.83;;
19798;SDS011;10059;59.850;10.454;2022-11-15T01:42:23;0.80;;;0.80;;
19798;SDS011;10059;59.850;10.454;2022-11-15T01:44:50;1.23;;;0.73;;
19798;SDS011;10059;59.850;10.454;2022-11-15T01:47:20;1.10;;;0.70;;
19798;SDS011;10059;59.850;10.454;2022-11-15T01:49:52;1.03;;;0.90;;
19798;SDS011;10059;59.850;10.454;2022-11-15T01:52:22;0.90;;;0.80;;
19798;SDS011;10059;59.850;10.454;2022-11-15T01:54:54;1.27;;;1.00;;
19798;SDS011;10059;59.850;10.454;2022-11-15T01:57:24;1.27;;;0.90;;
19798;SDS011;10059;59.850;10.454;2022-11-15T01:59:51;1.07;;;0.97;;
19798;SDS011;10059;59.850;10.454;2022-11-15T02:02:18;1.20;;;0.90;;
19798;SDS011;10059;59.850;10.454;2022-11-15T02:04:45;2.03;;;1.03;;
19798;SDS011;10059;59.850;10.454;2022-11-15T02:07:15;1.50;;;1.10;;
19798;SDS011;10059;59.850;10.454;2022-11-15T02:09:44;1.30;;;1.00;;
19798;SDS011;10059;59.850;10.454;2022-11-15T02:12:13;1.10;;;1.00;;
19798;SDS011;10059;59.850;10.454;2022-11-15T02:14:44;1.43;;;1.20;;
19798;SDS011;10059;59.850;10.454;2022-11-15T02:17:25;1.23;;;1.00;;
19798;SDS011;10059;59.850;10.454;2022-11-15T02:23:19;1.87;;;1.10;;
19798;SDS011;10059;59.850;10.454;2022-11-15T02:26:11;1.37;;;1.00;;
19798;SDS011;10059;59.850;10.454;2022-11-15T02:29:03;1.00;;;0.90;;
19798;SDS011;10059;59.850;10.454;2022-11-15T02:31:36;1.73;;;0.90;;
19798;SDS011;10059;59.850;10.454;2022-11-15T02:34:12;1.57;;;1.13;;
19798;SDS011;10059;59.850;10.454;2022-11-15T02:36:49;1.40;;;1.00;;
19798;SDS011;10059;59.850;10.454;2022-11-15T02:39:27;1.83;;;0.90;;
19798;SDS011;10059;59.850;10.454;2022-11-15T02:42:01;2.10;;;1.37;;
19798;SDS011;10059;59.850;10.454;2022-11-15T02:44:50;1.80;;;1.00;;
19798;SDS011;10059;59.850;10.454;2022-11-15T02:47:19;1.20;;;0.80;;
19798;SDS011;10059;59.850;10.454;2022-11-15T02:49:50;1.20;;;0.70;;
19798;SDS011;10059;59.850;10.454;2022-11-15T02:52:19;1.40;;;0.97;;
19798;SDS011;10059;59.850;10.454;2022-11-15T02:54:53;2.27;;;0.93;;
19798;SDS011;10059;59.850;10.454;2022-11-15T02:57:25;1.93;;;0.80;;
19798;SDS011;10059;59.850;10.454;2022-11-15T03:00:04;2.53;;;0.80;;
19798;SDS011;10059;59.850;10.454;2022-11-15T03:05:25;1.43;;;0.90;;
19798;SDS011;10059;59.850;10.454;2022-11-15T03:07:59;1.13;;;0.90;;
19798;SDS011;10059;59.850;10.454;2022-11-15T03:10:35;1.63;;;0.97;;
19798;SDS011;10059;59.850;10.454;2022-11-15T03:13:09;2.17;;;1.40;;
19798;SDS011;10059;59.850;10.454;2022-11-15T03:15:43;1.43;;;1.20;;
19798;SDS011;10059;59.850;10.454;2022-11-15T03:18:19;2.27;;;1.20;;
19798;SDS011;10059;59.850;10.454;2022-11-15T03:20:53;1.03;;;0.90;;
19798;SDS011;10059;59.850;10.454;2022-11-15T03:23:23;1.83;;;0.90;;
19798;SDS011;10059;59.850;10.454;2022-11-15T03:25:51;1.00;;;0.90;;
19798;SDS011;10059;59.850;10.454;2022-11-15T03:28:20;2.07;;;0.80;;
19798;SDS011;10059;59.850;10.454;2022-11-15T03:30:50;1.47;;;1.00;;
19798;SDS011;10059;59.850;10.454;2022-11-15T03:33:20;0.90;;;0.80;;
19798;SDS011;10059;59.850;10.454;2022-11-15T03:35:48;1.63;;;0.90;;
19798;SDS011;10059;59.850;10.454;2022-11-15T03:38:17;0.90;;;0.73;;
19798;SDS011;10059;59.850;10.454;2022-11-15T03:40:49;1.83;;;1.20;;
19798;SDS011;10059;59.850;10.454;2022-11-15T03:43:25;1.60;;;1.20;;
19798;SDS011;10059;59.850;10.454;2022-11-15T03:46:00;2.07;;;1.33;;
19798;SDS011;10059;59.850;10.454;2022-11-15T03:48:33;2.57;;;1.50;;
19798;SDS011;10059;59.850;10.454;2022-11-15T03:51:06;2.40;;;1.53;;
19798;SDS011;10059;59.850;10.454;2022-11-15T03:53:33;1.97;;;1.50;;
19798;SDS011;10059;59.850;10.454;2022-11-15T03:56:00;2.17;;;1.50;;
19798;SDS011;10059;59.850;10.454;2022-11-15T03:58:27;1.73;;;1.40;;
19798;SDS011;10059;59.850;10.454;2022-11-15T04:00:53;2.93;;;1.50;;
19798;SDS011;10059;59.850;10.454;2022-11-15T04:03:20;3.30;;;1.70;;
19798;SDS011;10059;59.850;10.454;2022-11-15T04:05:49;1.27;;;1.10;;
19798;SDS011;10059;59.850;10.454;2022-11-15T04:08:15;4.00;;;1.30;;
19798;SDS011;10059;59.850;10.454;2022-11-15T04:10:42;1.10;;;1.00;;
19798;SDS011;10059;59.850;10.454;2022-11-15T04:13:09;1.93;;;1.00;;
19798;SDS011;10059;59.850;10.454;2022-11-15T04:15:36;3.60;;;1.27;;
19798;SDS011;10059;59.850;10.454;2022-11-15T04:18:03;1.83;;;1.07;;
19798;SDS011;10059;59.850;10.454;2022-11-15T04:20:30;2.00;;;0.80;;
19798;SDS011;10059;59.850;10.454;2022-11-15T04:23:17;0.90;;;0.70;;
19798;SDS011;10059;59.850;10.454;2022-11-15T04:26:03;1.13;;;0.80;;
19798;SDS011;10059;59.850;10.454;2022-11-15T04:28:32;3.93;;;0.80;;
19798;SDS011;10059;59.850;10.454;2022-11-15T04:30:59;1.67;;;0.90;;
19798;SDS011;10059;59.850;10.454;2022-11-15T04:33:28;1.57;;;0.80;;
19798;SDS011;10059;59.850;10.454;2022-11-15T04:35:55;1.67;;;0.93;;
19798;SDS011;10059;59.850;10.454;2022-11-15T04:38:41;2.03;;;0.90;;
19798;SDS011;10059;59.850;10.454;2022-11-15T04:41:08;1.10;;;1.00;;
19798;SDS011;10059;59.850;10.454;2022-11-15T04:43:35;1.60;;;1.50;;
19798;SDS011;10059;59.850;10.454;2022-11-15T04:46:04;1.67;;;1.10;;
19798;SDS011;10059;59.850;10.454;2022-11-15T04:48:31;2.47;;;1.07;;
19798;SDS011;10059;59.850;10.454;2022-11-15T04:50:58;1.30;;;1.20;;
19798;SDS011;10059;59.850;10.454;2022-11-15T04:53:25;3.93;;;1.17;;
19798;SDS011;10059;59.850;10.454;2022-11-15T04:55:53;3.17;;;1.47;;
19798;SDS011;10059;59.850;10.454;2022-11-15T04:58:20;1.23;;;1.10;;
19798;SDS011;10059;59.850;10.454;2022-11-15T05:00:46;2.30;;;1.30;;
19798;SDS011;10059;59.850;10.454;2022-11-15T05:03:13;2.13;;;1.40;;
19798;SDS011;10059;59.850;10.454;2022-11-15T05:05:58;1.63;;;1.20;;
19798;SDS011;10059;59.850;10.454;2022-11-15T05:08:25;1.77;;;1.10;;
19798;SDS011;10059;59.850;10.454;2022-11-15T05:10:53;2.77;;;1.20;;
19798;SDS011;10059;59.850;10.454;2022-11-15T05:13:20;2.20;;;1.23;;
19798;SDS011;10059;59.850;10.454;2022-11-15T05:15:47;1.50;;;1.40;;
19798;SDS011;10059;59.850;10.454;2022-11-15T05:18:14;3.03;;;1.20;;
19798;SDS011;10059;59.850;10.454;2022-11-15T05:20:41;1.50;;;1.10;;
19798;SDS011;10059;59.850;10.454;2022-11-15T05:23:08;3.63;;;2.00;;
19798;SDS011;10059;59.850;10.454;2022-11-15T05:25:35;1.93;;;1.47;;
19798;SDS011;10059;59.850;10.454;2022-11-15T05:28:04;2.43;;;1.40;;
19798;SDS011;10059;59.850;10.454;2022-11-15T05:30:31;1.57;;;1.30;;
19798;SDS011;10059;59.850;10.454;2022-11-15T05:32:58;2.17;;;1.50;;
19798;SDS011;10059;59.850;10.454;2022-11-15T05:35:25;3.03;;;1.60;;
19798;SDS011;10059;59.850;10.454;2022-11-15T05:37:57;2.47;;;1.30;;
19798;SDS011;10059;59.850;10.454;2022-11-15T05:40:24;3.40;;;1.20;;
19798;SDS011;10059;59.850;10.454;2022-11-15T05:42:52;1.50;;;1.20;;
19798;SDS011;10059;59.850;10.454;2022-11-15T05:45:20;2.50;;;1.10;;
19798;SDS011;10059;59.850;10.454;2022-11-15T05:47:47;2.83;;;1.17;;
19798;SDS011;10059;59.850;10.454;2022-11-15T05:50:16;3.23;;;1.03;;
19798;SDS011;10059;59.850;10.454;2022-11-15T05:52:44;3.07;;;1.00;;
19798;SDS011;10059;59.850;10.454;2022-11-15T05:55:13;4.80;;;1.23;;
19798;SDS011;10059;59.850;10.454;2022-11-15T05:57:40;3.83;;;2.10;;
19798;SDS011;10059;59.850;10.454;2022-11-15T06:00:08;2.50;;;1.70;;
19798;SDS011;10059;59.850;10.454;2022-11-15T06:02:44;5.50;;;1.60;;
19798;SDS011;10059;59.850;10.454;2022-11-15T06:05:11;2.97;;;1.40;;
19798;SDS011;10059;59.850;10.454;2022-11-15T06:07:38;3.47;;;1.70;;
19798;SDS011;10059;59.850;10.454;2022-11-15T06:10:07;3.17;;;1.50;;
19798;SDS011;10059;59.850;10.454;2022-11-15T06:12:35;5.63;;;1.63;;
19798;SDS011;10059;59.850;10.454;2022-11-15T06:15:02;4.93;;;2.00;;
19798;SDS011;10059;59.850;10.454;2022-11-15T06:17:29;3.03;;;1.83;;
19798;SDS011;10059;59.850;10.454;2022-11-15T06:19:57;1.93;;;1.63;;
19798;SDS011;10059;59.850;10.454;2022-11-15T06:22:24;4.43;;;2.07;;
19798;SDS011;10059;59.850;10.454;2022-11-15T06:24:51;3.70;;;2.30;;
19798;SDS011;10059;59.850;10.454;2022-11-15T06:27:18;5.00;;;3.40;;
19798;SDS011;10059;59.850;10.454;2022-11-15T06:29:45;8.33;;;3.80;;
19798;SDS011;10059;59.850;10.454;2022-11-15T06:32:12;7.83;;;3.77;;
19798;SDS011;10059;59.850;10.454;2022-11-15T06:34:39;7.00;;;4.23;;
19798;SDS011;10059;59.850;10.454;2022-11-15T06:37:07;7.40;;;3.27;;
19798;SDS011;10059;59.850;10.454;2022-11-15T06:39:36;5.43;;;2.77;;
19798;SDS011;10059;59.850;10.454;2022-11-15T06:42:03;6.17;;;3.10;;
19798;SDS011;10059;59.850;10.454;2022-11-15T06:44:30;4.23;;;2.70;;
19798;SDS011;10059;59.850;10.454;2022-11-15T06:46:57;5.90;;;3.10;;
19798;SDS011;10059;59.850;10.454;2022-11-15T06:49:24;13.97;;;3.93;;
19798;SDS011;10059;59.850;10.454;2022-11-15T06:51:51;18.52;;;11.63;;
19798;SDS011;10059;59.850;10.454;2022-11-15T06:54:19;8.93;;;4.57;;
19798;SDS011;10059;59.850;10.454;2022-11-15T06:56:46;11.10;;;5.07;;
19798;SDS011;10059;59.850;10.454;2022-11-15T06:59:13;4.90;;;2.67;;
19798;SDS011;10059;59.850;10.454;2022-11-15T07:01:40;3.57;;;2.10;;
19798;SDS011;10059;59.850;10.454;2022-11-15T07:04:07;5.17;;;2.00;;
19798;SDS011;10059;59.850;10.454;2022-11-15T07:06:33;2.57;;;1.33;;
19798;SDS011;10059;59.850;10.454;2022-11-15T07:09:01;2.13;;;1.40;;
19798;SDS011;10059;59.850;10.454;2022-11-15T07:11:30;3.20;;;1.53;;
19798;SDS011;10059;59.850;10.454;2022-11-15T07:13:57;2.00;;;1.60;;
19798;SDS011;10059;59.850;10.454;2022-11-15T07:16:23;5.57;;;2.50;;
19798;SDS011;10059;59.850;10.454;2022-11-15T07:18:50;3.80;;;1.83;;
19798;SDS011;10059;59.850;10.454;2022-11-15T07:21:17;3.40;;;2.10;;
19798;SDS011;10059;59.850;10.454;2022-11-15T07:23:44;3.87;;;1.30;;
19798;SDS011;10059;59.850;10.454;2022-11-15T07:26:11;5.70;;;1.20;;
19798;SDS011;10059;59.850;10.454;2022-11-15T07:28:39;3.87;;;1.87;;
19798;SDS011;10059;59.850;10.454;2022-11-15T07:31:07;9.50;;;2.20;;
19798;SDS011;10059;59.850;10.454;2022-11-15T07:33:34;5.23;;;1.90;;
19798;SDS011;10059;59.850;10.454;2022-11-15T07:36:02;3.90;;;1.87;;
19798;SDS011;10059;59.850;10.454;2022-11-15T07:38:31;8.00;;;3.23;;
19798;SDS011;10059;59.850;10.454;2022-11-15T07:40:59;4.63;;;2.43;;
19798;SDS011;10059;59.850;10.454;2022-11-15T07:43:27;10.10;;;3.00;;
19798;SDS011;10059;59.850;10.454;2022-11-15T07:45:56;10.17;;;2.50;;
19798;SDS011;10059;59.850;10.454;2022-11-15T07:48:23;5.50;;;2.57;;
19798;SDS011;10059;59.850;10.454;2022-11-15T07:50:50;6.03;;;2.10;;
19798;SDS011;10059;59.850;10.454;2022-11-15T07:53:16;5.23;;;2.27;;
19798;SDS011;10059;59.850;10.454;2022-11-15T07:55:43;6.33;;;2.50;;
19798;SDS011;10059;59.850;10.454;2022-11-15T07:58:11;3.60;;;2.17;;
19798;SDS011;10059;59.850;10.454;2022-11-15T08:00:38;5.27;;;1.60;;
19798;SDS011;10059;59.850;10.454;2022-11-15T08:03:07;3.03;;;1.30;;
19798;SDS011;10059;59.850;10.454;2022-11-15T08:05:35;2.67;;;1.30;;
19798;SDS011;10059;59.850;10.454;2022-11-15T08:08:04;7.23;;;1.90;;
19798;SDS011;10059;59.850;10.454;2022-11-15T08:10:31;2.83;;;1.00;;
19798;SDS011;10059;59.850;10.454;2022-11-15T08:12:59;1.63;;;1.00;;
19798;SDS011;10059;59.850;10.454;2022-11-15T08:15:26;5.67;;;1.20;;
19798;SDS011;10059;59.850;10.454;2022-11-15T08:17:54;1.93;;;1.10;;
19798;SDS011;10059;59.850;10.454;2022-11-15T08:20:22;1.30;;;1.10;;
19798;SDS011;10059;59.850;10.454;2022-11-15T08:22:50;1.67;;;1.20;;
19798;SDS011;10059;59.850;10.454;2022-11-15T08:25:17;4.07;;;1.10;;
19798;SDS011;10059;59.850;10.454;2022-11-15T08:27:44;3.93;;;1.33;;
19798;SDS011;10059;59.850;10.454;2022-11-15T08:30:12;1.20;;;1.10;;
19798;SDS011;10059;59.850;10.454;2022-11-15T08:32:41;1.47;;;1.17;;
19798;SDS011;10059;59.850;10.454;2022-11-15T08:35:08;1.30;;;1.10;;
19798;SDS011;10059;59.850;10.454;2022-11-15T08:37:36;3.67;;;1.30;;
19798;SDS011;10059;59.850;10.454;2022-11-15T08:40:03;4.60;;;1.60;;
19798;SDS011;10059;59.850;10.454;2022-11-15T08:42:31;3.87;;;2.00;;
19798;SDS011;10059;59.850;10.454;2022-11-15T08:44:58;4.40;;;1.53;;
19798;SDS011;10059;59.850;10.454;2022-11-15T08:47:25;1.87;;;1.20;;
19798;SDS011;10059;59.850;10.454;2022-11-15T08:49:52;1.63;;;1.10;;
19798;SDS011;10059;59.850;10.454;2022-11-15T08:52:19;3.80;;;1.13;;
19798;SDS011;10059;59.850;10.454;2022-11-15T08:54:48;3.00;;;1.20;;
19798;SDS011;10059;59.850;10.454;2022-11-15T08:57:15;3.17;;;1.30;;
19798;SDS011;10059;59.850;10.454;2022-11-15T08:59:42;2.97;;;1.60;;
19798;SDS011;10059;59.850;10.454;2022-11-15T09:02:10;3.23;;;1.30;;
19798;SDS011;10059;59.850;10.454;2022-11-15T09:04:39;2.83;;;1.30;;
19798;SDS011;10059;59.850;10.454;2022-11-15T09:07:07;1.50;;;1.10;;
19798;SDS011;10059;59.850;10.454;2022-11-15T09:09:34;2.50;;;1.30;;
19798;SDS011;10059;59.850;10.454;2022-11-15T09:12:02;1.50;;;1.10;;
19798;SDS011;10059;59.850;10.454;2022-11-15T09:14:30;6.97;;;1.37;;
19798;SDS011;10059;59.850;10.454;2022-11-15T09:16:57;1.43;;;1.23;;
19798;SDS011;10059;59.850;10.454;2022-11-15T09:19:24;1.93;;;1.27;;
19798;SDS011;10059;59.850;10.454;2022-11-15T09:21:51;2.87;;;1.40;;
19798;SDS011;10059;59.850;10.454;2022-11-15T09:24:18;2.40;;;1.30;;
19798;SDS011;10059;59.850;10.454;2022-11-15T09:26:45;3.20;;;1.30;;
19798;SDS011;10059;59.850;10.454;2022-11-15T09:29:13;4.60;;;1.60;;
19798;SDS011;10059;59.850;10.454;2022-11-15T09:31:40;3.70;;;1.50;;
19798;SDS011;10059;59.850;10.454;2022-11-15T09:34:07;3.67;;;1.47;;
19798;SDS011;10059;59.850;10.454;2022-11-15T09:36:34;4.70;;;1.57;;
19798;SDS011;10059;59.850;10.454;2022-11-15T09:39:01;2.23;;;1.30;;
19798;SDS011;10059;59.850;10.454;2022-11-15T09:41:38;2.80;;;1.40;;
19798;SDS011;10059;59.850;10.454;2022-11-15T09:44:24;2.10;;;1.50;;
19798;SDS011;10059;59.850;10.454;2022-11-15T09:47:00;3.80;;;1.80;;
19798;SDS011;10059;59.850;10.454;2022-11-15T09:49:51;3.73;;;1.70;;
19798;SDS011;10059;59.850;10.454;2022-11-15T09:52:18;4.53;;;1.30;;
19798;SDS011;10059;59.850;10.454;2022-11-15T09:54:47;6.40;;;1.73;;
19798;SDS011;10059;59.850;10.454;2022-11-15T09:57:17;5.20;;;1.80;;
19798;SDS011;10059;59.850;10.454;2022-11-15T09:59:51;2.27;;;1.60;;
19798;SDS011;10059;59.850;10.454;2022-11-15T10:02:40;3.87;;;1.70;;
19798;SDS011;10059;59.850;10.454;2022-11-15T10:05:17;2.57;;;1.30;;
19798;SDS011;10059;59.850;10.454;2022-11-15T10:07:48;1.67;;;1.20;;
19798;SDS011;10059;59.850;10.454;2022-11-15T10:10:24;2.47;;;1.47;;
19798;SDS011;10059;59.850;10.454;2022-11-15T10:12:55;2.27;;;1.00;;
19798;SDS011;10059;59.850;10.454;2022-11-15T10:15:24;3.03;;;1.30;;
19798;SDS011;10059;59.850;10.454;2022-11-15T10:17:58;3.13;;;1.03;;
19798;SDS011;10059;59.850;10.454;2022-11-15T10:20:40;2.73;;;1.17;;
19798;SDS011;10059;59.850;10.454;2022-11-15T10:23:13;3.07;;;1.20;;
19798;SDS011;10059;59.850;10.454;2022-11-15T10:25:42;2.37;;;1.20;;
19798;SDS011;10059;59.850;10.454;2022-11-15T10:28:10;4.53;;;1.30;;
19798;SDS011;10059;59.850;10.454;2022-11-15T10:30:42;6.03;;;1.80;;
19798;SDS011;10059;59.850;10.454;2022-11-15T10:38:51;2.73;;;0.70;;
19798;SDS011;10059;59.850;10.454;2022-11-15T10:41:20;1.57;;;1.10;;
19798;SDS011;10059;59.850;10.454;2022-11-15T10:44:02;1.27;;;0.90;;
19798;SDS011;10059;59.850;10.454;2022-11-15T10:46:39;3.27;;;1.47;;
19798;SDS011;10059;59.850;10.454;2022-11-15T10:49:12;5.07;;;1.80;;
19798;SDS011;10059;59.850;10.454;2022-11-15T10:51:42;2.47;;;1.10;;
19798;SDS011;10059;59.850;10.454;2022-11-15T10:54:12;1.43;;;1.00;;
19798;SDS011;10059;59.850;10.454;2022-11-15T10:56:50;2.37;;;1.37;;
19798;SDS011;10059;59.850;10.454;2022-11-15T10:59:22;2.20;;;0.80;;
19798;SDS011;10059;59.850;10.454;2022-11-15T11:01:53;3.00;;;0.90;;
19798;SDS011;10059;59.850;10.454;2022-11-15T11:04:21;1.83;;;0.60;;
19798;SDS011;10059;59.850;10.454;2022-11-15T11:06:48;0.90;;;0.70;;
19798;SDS011;10059;59.850;10.454;2022-11-15T11:09:21;1.27;;;0.90;;
19798;SDS011;10059;59.850;10.454;2022-11-15T11:11:55;2.90;;;1.10;;
19798;SDS011;10059;59.850;10.454;2022-11-15T11:14:23;1.53;;;0.73;;
19798;SDS011;10059;59.850;10.454;2022-11-15T11:16:54;1.73;;;0.90;;
19798;SDS011;10059;59.850;10.454;2022-11-15T11:19:37;1.57;;;0.93;;
19798;SDS011;10059;59.850;10.454;2022-11-15T11:22:23;1.63;;;0.80;;
19798;SDS011;10059;59.850;10.454;2022-11-15T11:25:02;1.37;;;0.80;;
19798;SDS011;10059;59.850;10.454;2022-11-15T11:27:41;1.87;;;0.93;;
19798;SDS011;10059;59.850;10.454;2022-11-15T11:30:29;3.03;;;1.37;;
19798;SDS011;10059;59.850;10.454;2022-11-15T11:33:12;3.40;;;1.00;;
19798;SDS011;10059;59.850;10.454;2022-11-15T11:35:50;3.13;;;1.10;;
19798;SDS011;10059;59.850;10.454;2022-11-15T11:38:38;1.53;;;0.70;;
19798;SDS011;10059;59.850;10.454;2022-11-15T11:41:17;2.07;;;0.80;;
19798;SDS011;10059;59.850;10.454;2022-11-15T11:43:55;2.37;;;1.10;;
19798;SDS011;10059;59.850;10.454;2022-11-15T11:46:36;1.30;;;0.80;;
19798;SDS011;10059;59.850;10.454;2022-11-15T11:49:15;5.27;;;1.20;;
19798;SDS011;10059;59.850;10.454;2022-11-15T11:51:47;3.73;;;1.20;;
19798;SDS011;10059;59.850;10.454;2022-11-15T11:54:19;3.47;;;1.10;;
19798;SDS011;10059;59.850;10.454;2022-11-15T11:56:49;4.80;;;1.50;;
19798;SDS011;10059;59.850;10.454;2022-11-15T11:59:19;4.33;;;1.03;;
19798;SDS011;10059;59.850;10.454;2022-11-15T12:01:50;4.23;;;1.27;;
19798;SDS011;10059;59.850;10.454;2022-11-15T12:04:20;2.03;;;1.00;;
19798;SDS011;10059;59.850;10.454;2022-11-15T12:06:53;3.03;;;1.10;;
19798;SDS011;10059;59.850;10.454;2022-11-15T12:09:27;4.13;;;1.00;;
19798;SDS011;10059;59.850;10.454;2022-11-15T12:11:59;2.47;;;1.10;;
19798;SDS011;10059;59.850;10.454;2022-11-15T12:14:32;3.03;;;1.10;;
19798;SDS011;10059;59.850;10.454;2022-11-15T12:17:02;3.70;;;1.27;;
19798;SDS011;10059;59.850;10.454;2022-11-15T12:19:30;4.87;;;0.87;;
19798;SDS011;10059;59.850;10.454;2022-11-15T12:22:00;2.77;;;1.10;;
19798;SDS011;10059;59.850;10.454;2022-11-15T12:24:32;1.70;;;0.93;;
19798;SDS011;10059;59.850;10.454;2022-11-15T12:27:05;2.10;;;0.90;;
19798;SDS011;10059;59.850;10.454;2022-11-15T12:29:39;2.40;;;0.90;;
19798;SDS011;10059;59.850;10.454;2022-11-15T12:32:14;1.93;;;0.80;;
19798;SDS011;10059;59.850;10.454;2022-11-15T12:34:51;1.87;;;1.17;;
19798;SDS011;10059;59.850;10.454;2022-11-15T12:37:32;2.33;;;1.13;;
19798;SDS011;10059;59.850;10.454;2022-11-15T12:43:01;3.53;;;1.30;;
19798;SDS011;10059;59.850;10.454;2022-11-15T12:45:31;2.17;;;1.20;;
19798;SDS011;10059;59.850;10.454;2022-11-15T12:51:05;2.40;;;0.97;;
19798;SDS011;10059;59.850;10.454;2022-11-15T12:53:32;2.70;;;1.13;;
19798;SDS011;10059;59.850;10.454;2022-11-15T12:56:20;3.60;;;1.20;;
19798;SDS011;10059;59.850;10.454;2022-11-15T12:58:48;7.37;;;1.67;;
19798;SDS011;10059;59.850;10.454;2022-11-15T13:04:24;3.17;;;1.20;;
19798;SDS011;10059;59.850;10.454;2022-11-15T13:06:54;4.40;;;2.03;;
19798;SDS011;10059;59.850;10.454;2022-11-15T13:15:45;4.90;;;2.40;;
19798;SDS011;10059;59.850;10.454;2022-11-15T13:18:31;5.93;;;2.63;;
19798;SDS011;10059;59.850;10.454;2022-11-15T13:21:01;3.37;;;1.57;;
19798;SDS011;10059;59.850;10.454;2022-11-15T13:23:54;3.23;;;1.53;;
19798;SDS011;10059;59.850;10.454;2022-11-15T13:26:22;1.80;;;0.87;;
19798;SDS011;10059;59.850;10.454;2022-11-15T13:28:49;4.33;;;1.10;;
19798;SDS011;10059;59.850;10.454;2022-11-15T13:31:23;5.07;;;2.00;;
19798;SDS011;10059;59.850;10.454;2022-11-15T13:33:57;5.40;;;2.13;;
19798;SDS011;10059;59.850;10.454;2022-11-15T13:36:27;5.53;;;1.97;;
19798;SDS011;10059;59.850;10.454;2022-11-15T13:38:58;6.53;;;2.37;;
19798;SDS011;10059;59.850;10.454;2022-11-15T13:41:27;3.20;;;1.60;;
19798;SDS011;10059;59.850;10.454;2022-11-15T13:43:56;7.17;;;2.67;;
19798;SDS011;10059;59.850;10.454;2022-11-15T13:46:24;8.97;;;3.30;;
19798;SDS011;10059;59.850;10.454;2022-11-15T13:48:53;8.97;;;3.10;;
19798;SDS011;10059;59.850;10.454;2022-11-15T13:51:24;8.93;;;2.47;;
19798;SDS011;10059;59.850;10.454;2022-11-15T13:54:02;8.73;;;3.87;;
19798;SDS011;10059;59.850;10.454;2022-11-15T13:56:33;10.80;;;2.80;;
19798;SDS011;10059;59.850;10.454;2022-11-15T13:59:00;12.30;;;3.67;;
19798;SDS011;10059;59.850;10.454;2022-11-15T14:01:34;6.50;;;2.00;;
19798;SDS011;10059;59.850;10.454;2022-11-15T14:04:01;9.63;;;2.90;;
19798;SDS011;10059;59.850;10.454;2022-11-15T14:06:29;7.77;;;2.60;;
19798;SDS011;10059;59.850;10.454;2022-11-15T14:08:58;7.27;;;2.20;;
19798;SDS011;10059;59.850;10.454;2022-11-15T14:11:50;14.13;;;4.37;;
19798;SDS011;10059;59.850;10.454;2022-11-15T14:14:19;47.97;;;12.13;;
19798;SDS011;10059;59.850;10.454;2022-11-15T14:16:48;13.33;;;4.00;;
19798;SDS011;10059;59.850;10.454;2022-11-15T14:19:34;4.93;;;2.00;;
19798;SDS011;10059;59.850;10.454;2022-11-15T14:28:06;7.10;;;1.80;;
19798;SDS011;10059;59.850;10.454;2022-11-15T14:30:54;4.83;;;1.80;;
19798;SDS011;10059;59.850;10.454;2022-11-15T14:33:23;3.87;;;1.90;;
19798;SDS011;10059;59.850;10.454;2022-11-15T14:35:53;7.40;;;2.10;;
19798;SDS011;10059;59.850;10.454;2022-11-15T14:38:21;7.23;;;2.60;;
19798;SDS011;10059;59.850;10.454;2022-11-15T14:40:48;5.47;;;1.80;;
19798;SDS011;10059;59.850;10.454;2022-11-15T14:43:17;2.67;;;1.27;;
19798;SDS011;10059;59.850;10.454;2022-11-15T14:45:43;3.20;;;1.30;;
19798;SDS011;10059;59.850;10.454;2022-11-15T14:48:11;9.17;;;2.00;;
19798;SDS011;10059;59.850;10.454;2022-11-15T14:50:38;5.90;;;1.60;;
19798;SDS011;10059;59.850;10.454;2022-11-15T14:53:05;4.77;;;1.70;;
19798;SDS011;10059;59.850;10.454;2022-11-15T14:55:33;6.33;;;1.27;;
19798;SDS011;10059;59.850;10.454;2022-11-15T14:58:01;3.80;;;1.80;;
19798;SDS011;10059;59.850;10.454;2022-11-15T15:00:30;3.53;;;1.50;;
19798;SDS011;10059;59.850;10.454;2022-11-15T15:02:57;3.27;;;1.67;;
19798;SDS011;10059;59.850;10.454;2022-11-15T15:05:32;4.33;;;1.73;;
19798;SDS011;10059;59.850;10.454;2022-11-15T15:08:00;5.53;;;1.67;;
19798;SDS011;10059;59.850;10.454;2022-11-15T15:10:30;4.87;;;1.40;;
19798;SDS011;10059;59.850;10.454;2022-11-15T15:12:58;5.63;;;1.40;;
19798;SDS011;10059;59.850;10.454;2022-11-15T15:15:33;4.07;;;1.30;;
19798;SDS011;10059;59.850;10.454;2022-11-15T15:18:02;3.70;;;1.30;;
19798;SDS011;10059;59.850;10.454;2022-11-15T15:20:30;2.23;;;1.10;;
19798;SDS011;10059;59.850;10.454;2022-11-15T15:22:57;3.17;;;0.97;;
19798;SDS011;10059;59.850;10.454;2022-11-15T15:25:28;2.77;;;1.07;;